Portada
METAR-TAF:

METAR-TAF

Aeroports :

Mysore, Índia

latitud: 12-13-48N, longitud: 76-39-21E, altitud: 715 m

Observació

L'informe es va fer fa 4 hores i 17 minuts, a les 15:00 UTC
Vent 2 kt del Nord/Nord-Est
Temperatura 27°C
Humitat 42%
Pressió 1013 hPa
Visibilitat: 6000 m

METAR: VOMY 251500Z 02002KT 6000 NSC 27/13 Q1013

Hora: 00:47 (19:17 UTC)

Pronòstic

L'informe es va fer fa 14 hores i 17 minuts, a les 05:00 UTC
Pronòstic vàlid del 25 a les 06 UTC al 25 a les 15 UTC
Vent 10 kt del Sud-Est
Visibilitat: 6000 m
Escasses núvols a una alçada de 1500 ft

TAF: VOMY 250500Z 2506/2515 14010KT 6000 FEW015

Observacions i pronòstics meteorològics de més de 4000 aeroports (METAR i TAF).

Les estacions disponibles són els punts grocs i vermells al mapa.

Posi el ratolí al punt desitjat per veure el nom de l'estació.

Feu clic per veure les observacions i els pronòstics meteorològics.

Per canviar el mapa: feu clic els botons verds amb una creu de color negre per apropar; al botó verd amb un guió per allunyar la imatge; o en les fletxes verdes per a mapes adjacents.


METAR-TAF: